sensor_id;sensor_type;location;lat;lon;timestamp;P1;durP1;ratioP1;P2;durP2;ratioP2
10641;SDS011;5369;49.586;8.646;2024-02-26T00:01:57;1.77;;;1.47;;
10641;SDS011;5369;49.586;8.646;2024-02-26T00:04:23;2.70;;;1.60;;
10641;SDS011;5369;49.586;8.646;2024-02-26T00:06:50;1.70;;;1.37;;
10641;SDS011;5369;49.586;8.646;2024-02-26T00:09:19;2.03;;;1.50;;
10641;SDS011;5369;49.586;8.646;2024-02-26T00:11:45;1.33;;;1.23;;
10641;SDS011;5369;49.586;8.646;2024-02-26T00:14:11;1.70;;;1.40;;
10641;SDS011;5369;49.586;8.646;2024-02-26T00:16:39;1.80;;;1.50;;
10641;SDS011;5369;49.586;8.646;2024-02-26T00:19:06;2.20;;;1.30;;
10641;SDS011;5369;49.586;8.646;2024-02-26T00:21:33;1.73;;;1.20;;
10641;SDS011;5369;49.586;8.646;2024-02-26T00:23:59;3.23;;;1.60;;
10641;SDS011;5369;49.586;8.646;2024-02-26T00:26:25;2.33;;;1.50;;
10641;SDS011;5369;49.586;8.646;2024-02-26T00:28:51;2.67;;;1.63;;
10641;SDS011;5369;49.586;8.646;2024-02-26T00:31:17;2.83;;;1.33;;
10641;SDS011;5369;49.586;8.646;2024-02-26T00:33:43;3.53;;;1.80;;
10641;SDS011;5369;49.586;8.646;2024-02-26T00:36:10;1.80;;;1.40;;
10641;SDS011;5369;49.586;8.646;2024-02-26T00:38:36;2.60;;;1.20;;
10641;SDS011;5369;49.586;8.646;2024-02-26T00:41:02;1.67;;;1.30;;
10641;SDS011;5369;49.586;8.646;2024-02-26T00:43:29;1.30;;;1.20;;
10641;SDS011;5369;49.586;8.646;2024-02-26T00:45:55;1.40;;;1.30;;
10641;SDS011;5369;49.586;8.646;2024-02-26T00:48:21;1.30;;;1.20;;
10641;SDS011;5369;49.586;8.646;2024-02-26T00:50:47;1.33;;;1.20;;
10641;SDS011;5369;49.586;8.646;2024-02-26T00:53:13;1.33;;;1.20;;
10641;SDS011;5369;49.586;8.646;2024-02-26T00:55:39;1.97;;;1.30;;
10641;SDS011;5369;49.586;8.646;2024-02-26T00:58:05;1.80;;;1.40;;
10641;SDS011;5369;49.586;8.646;2024-02-26T01:00:32;1.73;;;1.20;;
10641;SDS011;5369;49.586;8.646;2024-02-26T01:02:58;1.63;;;1.33;;
10641;SDS011;5369;49.586;8.646;2024-02-26T01:05:25;1.73;;;1.30;;
10641;SDS011;5369;49.586;8.646;2024-02-26T01:07:51;4.00;;;2.23;;
10641;SDS011;5369;49.586;8.646;2024-02-26T01:10:17;3.80;;;1.97;;
10641;SDS011;5369;49.586;8.646;2024-02-26T01:12:43;2.40;;;1.40;;
10641;SDS011;5369;49.586;8.646;2024-02-26T01:15:10;7.73;;;3.57;;
10641;SDS011;5369;49.586;8.646;2024-02-26T01:17:36;7.93;;;3.20;;
10641;SDS011;5369;49.586;8.646;2024-02-26T01:20:04;3.80;;;1.87;;
10641;SDS011;5369;49.586;8.646;2024-02-26T01:22:30;4.40;;;2.50;;
10641;SDS011;5369;49.586;8.646;2024-02-26T01:24:56;9.27;;;3.87;;
10641;SDS011;5369;49.586;8.646;2024-02-26T01:27:23;5.70;;;2.90;;
10641;SDS011;5369;49.586;8.646;2024-02-26T01:29:52;7.37;;;3.70;;
10641;SDS011;5369;49.586;8.646;2024-02-26T01:32:18;12.93;;;5.60;;
10641;SDS011;5369;49.586;8.646;2024-02-26T01:34:44;12.97;;;6.93;;
10641;SDS011;5369;49.586;8.646;2024-02-26T01:37:11;18.77;;;8.87;;
10641;SDS011;5369;49.586;8.646;2024-02-26T01:39:37;13.83;;;7.10;;
10641;SDS011;5369;49.586;8.646;2024-02-26T01:42:03;9.43;;;4.60;;
10641;SDS011;5369;49.586;8.646;2024-02-26T01:44:29;4.60;;;3.00;;
10641;SDS011;5369;49.586;8.646;2024-02-26T01:46:55;7.33;;;3.50;;
10641;SDS011;5369;49.586;8.646;2024-02-26T01:49:22;9.40;;;5.20;;
10641;SDS011;5369;49.586;8.646;2024-02-26T01:51:48;8.07;;;4.33;;
10641;SDS011;5369;49.586;8.646;2024-02-26T01:54:14;6.20;;;3.13;;
10641;SDS011;5369;49.586;8.646;2024-02-26T01:56:40;7.83;;;3.50;;
10641;SDS011;5369;49.586;8.646;2024-02-26T01:59:07;4.33;;;2.50;;
10641;SDS011;5369;49.586;8.646;2024-02-26T02:01:34;6.60;;;3.70;;
10641;SDS011;5369;49.586;8.646;2024-02-26T02:04:00;2.87;;;2.00;;
10641;SDS011;5369;49.586;8.646;2024-02-26T02:06:26;2.23;;;1.70;;
10641;SDS011;5369;49.586;8.646;2024-02-26T02:08:54;1.77;;;1.20;;
10641;SDS011;5369;49.586;8.646;2024-02-26T02:11:20;1.53;;;1.30;;
10641;SDS011;5369;49.586;8.646;2024-02-26T02:13:46;1.40;;;1.20;;
10641;SDS011;5369;49.586;8.646;2024-02-26T02:16:13;2.10;;;1.30;;
10641;SDS011;5369;49.586;8.646;2024-02-26T02:18:39;2.37;;;1.20;;
10641;SDS011;5369;49.586;8.646;2024-02-26T02:21:05;1.63;;;1.20;;
10641;SDS011;5369;49.586;8.646;2024-02-26T02:23:31;2.03;;;1.40;;
10641;SDS011;5369;49.586;8.646;2024-02-26T02:25:57;1.40;;;1.23;;
10641;SDS011;5369;49.586;8.646;2024-02-26T02:28:25;1.40;;;1.30;;
10641;SDS011;5369;49.586;8.646;2024-02-26T02:30:52;1.80;;;1.57;;
10641;SDS011;5369;49.586;8.646;2024-02-26T02:33:18;4.27;;;2.40;;
10641;SDS011;5369;49.586;8.646;2024-02-26T02:35:44;4.57;;;2.90;;
10641;SDS011;5369;49.586;8.646;2024-02-26T02:38:11;3.37;;;2.30;;
10641;SDS011;5369;49.586;8.646;2024-02-26T02:40:37;3.47;;;2.03;;
10641;SDS011;5369;49.586;8.646;2024-02-26T02:43:03;7.90;;;4.17;;
10641;SDS011;5369;49.586;8.646;2024-02-26T02:45:29;8.80;;;4.00;;
10641;SDS011;5369;49.586;8.646;2024-02-26T02:47:56;20.80;;;8.67;;
10641;SDS011;5369;49.586;8.646;2024-02-26T02:50:22;20.43;;;9.07;;
10641;SDS011;5369;49.586;8.646;2024-02-26T02:52:48;12.30;;;5.33;;
10641;SDS011;5369;49.586;8.646;2024-02-26T02:55:15;5.73;;;3.43;;
10641;SDS011;5369;49.586;8.646;2024-02-26T02:57:42;3.00;;;2.10;;
10641;SDS011;5369;49.586;8.646;2024-02-26T03:00:09;3.90;;;2.30;;
10641;SDS011;5369;49.586;8.646;2024-02-26T03:02:35;5.37;;;2.83;;
10641;SDS011;5369;49.586;8.646;2024-02-26T03:05:02;3.17;;;1.70;;
10641;SDS011;5369;49.586;8.646;2024-02-26T03:07:29;1.73;;;1.40;;
10641;SDS011;5369;49.586;8.646;2024-02-26T03:09:55;1.50;;;1.40;;
10641;SDS011;5369;49.586;8.646;2024-02-26T03:12:21;2.33;;;1.43;;
10641;SDS011;5369;49.586;8.646;2024-02-26T03:14:47;2.93;;;1.50;;
10641;SDS011;5369;49.586;8.646;2024-02-26T03:17:13;1.83;;;1.40;;
10641;SDS011;5369;49.586;8.646;2024-02-26T03:19:39;2.70;;;1.67;;
10641;SDS011;5369;49.586;8.646;2024-02-26T03:22:05;4.00;;;2.13;;
10641;SDS011;5369;49.586;8.646;2024-02-26T03:24:32;2.37;;;1.93;;
10641;SDS011;5369;49.586;8.646;2024-02-26T03:26:58;1.90;;;1.70;;
10641;SDS011;5369;49.586;8.646;2024-02-26T03:29:24;2.63;;;1.60;;
10641;SDS011;5369;49.586;8.646;2024-02-26T03:31:50;5.93;;;2.90;;
10641;SDS011;5369;49.586;8.646;2024-02-26T03:34:16;14.37;;;5.50;;
10641;SDS011;5369;49.586;8.646;2024-02-26T03:36:43;7.80;;;3.50;;
10641;SDS011;5369;49.586;8.646;2024-02-26T03:39:10;5.90;;;2.97;;
10641;SDS011;5369;49.586;8.646;2024-02-26T03:41:36;13.33;;;4.33;;
10641;SDS011;5369;49.586;8.646;2024-02-26T03:44:02;11.60;;;4.57;;
10641;SDS011;5369;49.586;8.646;2024-02-26T03:46:28;9.50;;;4.17;;
10641;SDS011;5369;49.586;8.646;2024-02-26T03:48:55;11.97;;;5.20;;
10641;SDS011;5369;49.586;8.646;2024-02-26T03:51:21;11.87;;;4.70;;
10641;SDS011;5369;49.586;8.646;2024-02-26T03:53:47;8.13;;;3.83;;
10641;SDS011;5369;49.586;8.646;2024-02-26T03:56:13;10.63;;;3.83;;
10641;SDS011;5369;49.586;8.646;2024-02-26T03:58:39;4.63;;;2.30;;
10641;SDS011;5369;49.586;8.646;2024-02-26T04:01:09;3.20;;;2.23;;
10641;SDS011;5369;49.586;8.646;2024-02-26T04:03:35;2.10;;;1.60;;
10641;SDS011;5369;49.586;8.646;2024-02-26T04:06:01;5.33;;;2.30;;
10641;SDS011;5369;49.586;8.646;2024-02-26T04:08:28;5.47;;;2.80;;
10641;SDS011;5369;49.586;8.646;2024-02-26T04:10:54;4.47;;;2.30;;
10641;SDS011;5369;49.586;8.646;2024-02-26T04:13:20;7.33;;;2.40;;
10641;SDS011;5369;49.586;8.646;2024-02-26T04:15:46;12.33;;;4.30;;
10641;SDS011;5369;49.586;8.646;2024-02-26T04:18:13;9.60;;;3.30;;
10641;SDS011;5369;49.586;8.646;2024-02-26T04:20:39;6.07;;;2.83;;
10641;SDS011;5369;49.586;8.646;2024-02-26T04:23:07;5.67;;;2.40;;
10641;SDS011;5369;49.586;8.646;2024-02-26T04:25:33;2.07;;;1.60;;
10641;SDS011;5369;49.586;8.646;2024-02-26T04:27:59;5.73;;;2.40;;
10641;SDS011;5369;49.586;8.646;2024-02-26T04:30:25;4.37;;;2.00;;
10641;SDS011;5369;49.586;8.646;2024-02-26T04:32:52;3.70;;;2.13;;
10641;SDS011;5369;49.586;8.646;2024-02-26T04:35:18;3.10;;;2.10;;
10641;SDS011;5369;49.586;8.646;2024-02-26T04:37:44;4.20;;;2.00;;
10641;SDS011;5369;49.586;8.646;2024-02-26T04:40:10;1.67;;;1.37;;
10641;SDS011;5369;49.586;8.646;2024-02-26T04:42:36;1.30;;;1.20;;
10641;SDS011;5369;49.586;8.646;2024-02-26T04:45:03;2.00;;;1.60;;
10641;SDS011;5369;49.586;8.646;2024-02-26T04:47:29;2.30;;;1.87;;
10641;SDS011;5369;49.586;8.646;2024-02-26T04:49:55;3.30;;;1.97;;
10641;SDS011;5369;49.586;8.646;2024-02-26T04:52:21;15.63;;;5.67;;
10641;SDS011;5369;49.586;8.646;2024-02-26T04:54:47;4.13;;;2.40;;
10641;SDS011;5369;49.586;8.646;2024-02-26T04:57:14;1.83;;;1.50;;
10641;SDS011;5369;49.586;8.646;2024-02-26T04:59:40;5.20;;;2.20;;
10641;SDS011;5369;49.586;8.646;2024-02-26T05:02:07;2.23;;;1.53;;
10641;SDS011;5369;49.586;8.646;2024-02-26T05:04:33;5.77;;;2.40;;
10641;SDS011;5369;49.586;8.646;2024-02-26T05:06:59;3.03;;;1.70;;
10641;SDS011;5369;49.586;8.646;2024-02-26T05:09:25;1.93;;;1.30;;
10641;SDS011;5369;49.586;8.646;2024-02-26T05:11:52;2.30;;;1.30;;
10641;SDS011;5369;49.586;8.646;2024-02-26T05:14:18;1.00;;;0.90;;
10641;SDS011;5369;49.586;8.646;2024-02-26T05:16:44;1.83;;;1.17;;
10641;SDS011;5369;49.586;8.646;2024-02-26T05:19:10;2.07;;;1.40;;
10641;SDS011;5369;49.586;8.646;2024-02-26T05:21:36;1.57;;;1.17;;
10641;SDS011;5369;49.586;8.646;2024-02-26T05:24:03;2.80;;;1.30;;
10641;SDS011;5369;49.586;8.646;2024-02-26T05:26:29;2.73;;;1.30;;
10641;SDS011;5369;49.586;8.646;2024-02-26T05:28:55;1.50;;;1.20;;
10641;SDS011;5369;49.586;8.646;2024-02-26T05:31:25;1.50;;;1.20;;
10641;SDS011;5369;49.586;8.646;2024-02-26T05:33:51;2.50;;;1.03;;
10641;SDS011;5369;49.586;8.646;2024-02-26T05:36:17;2.67;;;1.40;;
10641;SDS011;5369;49.586;8.646;2024-02-26T05:38:44;1.47;;;1.20;;
10641;SDS011;5369;49.586;8.646;2024-02-26T05:41:11;0.93;;;0.93;;
10641;SDS011;5369;49.586;8.646;2024-02-26T05:43:37;2.17;;;1.20;;
10641;SDS011;5369;49.586;8.646;2024-02-26T05:46:04;1.30;;;1.00;;
10641;SDS011;5369;49.586;8.646;2024-02-26T05:48:30;1.50;;;1.00;;
10641;SDS011;5369;49.586;8.646;2024-02-26T05:50:57;0.93;;;0.93;;
10641;SDS011;5369;49.586;8.646;2024-02-26T05:53:23;1.20;;;1.03;;
10641;SDS011;5369;49.586;8.646;2024-02-26T05:55:49;1.00;;;0.90;;
10641;SDS011;5369;49.586;8.646;2024-02-26T05:58:15;1.40;;;0.90;;
10641;SDS011;5369;49.586;8.646;2024-02-26T06:00:42;1.40;;;1.13;;
10641;SDS011;5369;49.586;8.646;2024-02-26T06:03:08;0.97;;;0.90;;
10641;SDS011;5369;49.586;8.646;2024-02-26T06:05:34;0.90;;;0.90;;
10641;SDS011;5369;49.586;8.646;2024-02-26T06:08:00;1.20;;;0.97;;
10641;SDS011;5369;49.586;8.646;2024-02-26T06:10:27;1.23;;;1.00;;
10641;SDS011;5369;49.586;8.646;2024-02-26T06:12:54;1.20;;;1.10;;
10641;SDS011;5369;49.586;8.646;2024-02-26T06:15:21;1.20;;;1.10;;
10641;SDS011;5369;49.586;8.646;2024-02-26T06:17:47;1.37;;;1.03;;
10641;SDS011;5369;49.586;8.646;2024-02-26T06:20:13;1.47;;;1.20;;
10641;SDS011;5369;49.586;8.646;2024-02-26T06:22:40;1.10;;;1.00;;
10641;SDS011;5369;49.586;8.646;2024-02-26T06:25:07;1.27;;;1.07;;
10641;SDS011;5369;49.586;8.646;2024-02-26T06:27:33;1.20;;;1.10;;
10641;SDS011;5369;49.586;8.646;2024-02-26T06:29:59;2.00;;;1.50;;
10641;SDS011;5369;49.586;8.646;2024-02-26T06:32:25;2.13;;;1.50;;
10641;SDS011;5369;49.586;8.646;2024-02-26T06:34:53;1.93;;;1.50;;
10641;SDS011;5369;49.586;8.646;2024-02-26T06:37:20;1.10;;;1.00;;
10641;SDS011;5369;49.586;8.646;2024-02-26T06:39:46;1.00;;;0.93;;
10641;SDS011;5369;49.586;8.646;2024-02-26T06:42:12;1.00;;;0.90;;
10641;SDS011;5369;49.586;8.646;2024-02-26T06:44:38;1.10;;;0.97;;
10641;SDS011;5369;49.586;8.646;2024-02-26T06:47:05;1.20;;;1.00;;
10641;SDS011;5369;49.586;8.646;2024-02-26T06:49:31;0.80;;;0.80;;
10641;SDS011;5369;49.586;8.646;2024-02-26T06:51:57;0.87;;;0.83;;
10641;SDS011;5369;49.586;8.646;2024-02-26T06:54:23;1.03;;;0.90;;
10641;SDS011;5369;49.586;8.646;2024-02-26T06:56:50;2.10;;;0.90;;
10641;SDS011;5369;49.586;8.646;2024-02-26T06:59:16;1.10;;;1.00;;
10641;SDS011;5369;49.586;8.646;2024-02-26T07:01:43;1.10;;;1.00;;
10641;SDS011;5369;49.586;8.646;2024-02-26T07:04:10;0.83;;;0.83;;
10641;SDS011;5369;49.586;8.646;2024-02-26T07:06:36;0.80;;;0.80;;
10641;SDS011;5369;49.586;8.646;2024-02-26T07:09:03;1.10;;;1.00;;
10641;SDS011;5369;49.586;8.646;2024-02-26T07:11:29;1.80;;;0.90;;
10641;SDS011;5369;49.586;8.646;2024-02-26T07:13:55;0.80;;;0.80;;
10641;SDS011;5369;49.586;8.646;2024-02-26T07:16:21;1.10;;;1.00;;
10641;SDS011;5369;49.586;8.646;2024-02-26T07:18:47;1.07;;;0.97;;
10641;SDS011;5369;49.586;8.646;2024-02-26T07:21:13;3.10;;;1.20;;
10641;SDS011;5369;49.586;8.646;2024-02-26T07:23:39;1.20;;;1.10;;
10641;SDS011;5369;49.586;8.646;2024-02-26T07:26:06;1.90;;;1.00;;
10641;SDS011;5369;49.586;8.646;2024-02-26T07:28:33;0.90;;;0.90;;
10641;SDS011;5369;49.586;8.646;2024-02-26T07:30:59;1.10;;;1.00;;
10641;SDS011;5369;49.586;8.646;2024-02-26T07:33:25;1.73;;;1.20;;
10641;SDS011;5369;49.586;8.646;2024-02-26T07:35:51;1.50;;;1.20;;
10641;SDS011;5369;49.586;8.646;2024-02-26T07:38:18;1.37;;;1.20;;
10641;SDS011;5369;49.586;8.646;2024-02-26T07:40:45;1.20;;;1.10;;
10641;SDS011;5369;49.586;8.646;2024-02-26T07:43:11;1.20;;;1.00;;
10641;SDS011;5369;49.586;8.646;2024-02-26T07:45:37;1.00;;;0.90;;
10641;SDS011;5369;49.586;8.646;2024-02-26T07:48:03;1.20;;;1.00;;
10641;SDS011;5369;49.586;8.646;2024-02-26T07:50:29;1.07;;;0.97;;
10641;SDS011;5369;49.586;8.646;2024-02-26T07:52:55;1.80;;;0.90;;
10641;SDS011;5369;49.586;8.646;2024-02-26T07:55:22;1.57;;;1.20;;
10641;SDS011;5369;49.586;8.646;2024-02-26T07:57:48;1.30;;;1.20;;
10641;SDS011;5369;49.586;8.646;2024-02-26T08:00:14;1.33;;;1.17;;
10641;SDS011;5369;49.586;8.646;2024-02-26T08:02:42;1.40;;;1.10;;
10641;SDS011;5369;49.586;8.646;2024-02-26T08:05:09;1.00;;;1.00;;
10641;SDS011;5369;49.586;8.646;2024-02-26T08:07:35;2.40;;;1.10;;
10641;SDS011;5369;49.586;8.646;2024-02-26T08:10:01;1.37;;;1.17;;
10641;SDS011;5369;49.586;8.646;2024-02-26T08:12:27;2.87;;;1.83;;
10641;SDS011;5369;49.586;8.646;2024-02-26T08:14:53;2.27;;;1.40;;
10641;SDS011;5369;49.586;8.646;2024-02-26T08:17:20;1.30;;;1.20;;
10641;SDS011;5369;49.586;8.646;2024-02-26T08:19:46;1.20;;;1.10;;
10641;SDS011;5369;49.586;8.646;2024-02-26T08:22:13;1.20;;;1.10;;
10641;SDS011;5369;49.586;8.646;2024-02-26T08:24:41;1.47;;;1.27;;
10641;SDS011;5369;49.586;8.646;2024-02-26T08:27:08;1.37;;;1.10;;
10641;SDS011;5369;49.586;8.646;2024-02-26T08:29:34;1.20;;;1.10;;
10641;SDS011;5369;49.586;8.646;2024-02-26T08:32:00;1.13;;;1.00;;
10641;SDS011;5369;49.586;8.646;2024-02-26T08:34:26;1.30;;;1.20;;
10641;SDS011;5369;49.586;8.646;2024-02-26T08:36:52;1.47;;;1.20;;
10641;SDS011;5369;49.586;8.646;2024-02-26T08:39:18;1.20;;;1.03;;
10641;SDS011;5369;49.586;8.646;2024-02-26T08:41:45;1.00;;;0.90;;
10641;SDS011;5369;49.586;8.646;2024-02-26T08:44:11;1.13;;;0.90;;
10641;SDS011;5369;49.586;8.646;2024-02-26T08:46:38;1.07;;;0.97;;
10641;SDS011;5369;49.586;8.646;2024-02-26T08:49:04;1.00;;;1.00;;
10641;SDS011;5369;49.586;8.646;2024-02-26T08:51:30;1.20;;;1.10;;
10641;SDS011;5369;49.586;8.646;2024-02-26T08:53:57;1.20;;;1.10;;
10641;SDS011;5369;49.586;8.646;2024-02-26T08:56:23;2.60;;;1.00;;
10641;SDS011;5369;49.586;8.646;2024-02-26T08:58:49;1.10;;;1.00;;
10641;SDS011;5369;49.586;8.646;2024-02-26T09:01:18;1.40;;;1.30;;
10641;SDS011;5369;49.586;8.646;2024-02-26T09:03:45;0.90;;;0.90;;
10641;SDS011;5369;49.586;8.646;2024-02-26T09:06:11;1.60;;;1.43;;
10641;SDS011;5369;49.586;8.646;2024-02-26T09:08:40;1.60;;;1.27;;
10641;SDS011;5369;49.586;8.646;2024-02-26T09:11:06;1.67;;;1.40;;
10641;SDS011;5369;49.586;8.646;2024-02-26T09:13:32;2.17;;;1.10;;
10641;SDS011;5369;49.586;8.646;2024-02-26T09:15:59;2.83;;;1.30;;
10641;SDS011;5369;49.586;8.646;2024-02-26T09:18:25;2.03;;;1.40;;
10641;SDS011;5369;49.586;8.646;2024-02-26T09:20:54;1.30;;;1.20;;
10641;SDS011;5369;49.586;8.646;2024-02-26T09:23:20;1.30;;;1.20;;
10641;SDS011;5369;49.586;8.646;2024-02-26T09:25:46;1.20;;;1.10;;
10641;SDS011;5369;49.586;8.646;2024-02-26T09:28:12;1.50;;;1.10;;
10641;SDS011;5369;49.586;8.646;2024-02-26T09:30:40;1.03;;;0.93;;
10641;SDS011;5369;49.586;8.646;2024-02-26T09:33:06;1.10;;;1.00;;
10641;SDS011;5369;49.586;8.646;2024-02-26T09:35:33;1.20;;;1.10;;
10641;SDS011;5369;49.586;8.646;2024-02-26T09:37:59;1.63;;;0.97;;
10641;SDS011;5369;49.586;8.646;2024-02-26T09:40:25;1.20;;;1.00;;
10641;SDS011;5369;49.586;8.646;2024-02-26T09:42:53;1.10;;;0.90;;
10641;SDS011;5369;49.586;8.646;2024-02-26T09:45:22;1.30;;;1.10;;
10641;SDS011;5369;49.586;8.646;2024-02-26T09:47:50;1.00;;;1.00;;
10641;SDS011;5369;49.586;8.646;2024-02-26T09:50:17;1.20;;;1.03;;
10641;SDS011;5369;49.586;8.646;2024-02-26T09:52:47;1.30;;;1.20;;
10641;SDS011;5369;49.586;8.646;2024-02-26T09:55:14;2.50;;;1.10;;
10641;SDS011;5369;49.586;8.646;2024-02-26T09:57:42;1.20;;;1.10;;
10641;SDS011;5369;49.586;8.646;2024-02-26T10:00:10;1.20;;;1.10;;
10641;SDS011;5369;49.586;8.646;2024-02-26T10:02:39;1.13;;;1.03;;
10641;SDS011;5369;49.586;8.646;2024-02-26T10:05:07;2.67;;;1.50;;
10641;SDS011;5369;49.586;8.646;2024-02-26T10:07:37;3.00;;;2.30;;
10641;SDS011;5369;49.586;8.646;2024-02-26T10:10:04;1.80;;;1.50;;
10641;SDS011;5369;49.586;8.646;2024-02-26T10:12:30;1.67;;;1.30;;
10641;SDS011;5369;49.586;8.646;2024-02-26T10:14:57;1.30;;;1.20;;
10641;SDS011;5369;49.586;8.646;2024-02-26T10:17:23;1.77;;;1.47;;
10641;SDS011;5369;49.586;8.646;2024-02-26T10:19:50;1.97;;;1.30;;
10641;SDS011;5369;49.586;8.646;2024-02-26T10:22:20;1.10;;;1.00;;
10641;SDS011;5369;49.586;8.646;2024-02-26T10:24:47;1.60;;;1.10;;
10641;SDS011;5369;49.586;8.646;2024-02-26T10:27:14;1.10;;;1.00;;
10641;SDS011;5369;49.586;8.646;2024-02-26T10:29:40;1.20;;;1.10;;
10641;SDS011;5369;49.586;8.646;2024-02-26T10:32:08;1.43;;;1.10;;
10641;SDS011;5369;49.586;8.646;2024-02-26T10:34:36;1.23;;;1.13;;
10641;SDS011;5369;49.586;8.646;2024-02-26T10:37:06;2.97;;;1.53;;
10641;SDS011;5369;49.586;8.646;2024-02-26T10:39:32;2.87;;;1.80;;
10641;SDS011;5369;49.586;8.646;2024-02-26T10:41:59;2.33;;;1.63;;
10641;SDS011;5369;49.586;8.646;2024-02-26T10:44:31;3.63;;;2.40;;
10641;SDS011;5369;49.586;8.646;2024-02-26T10:46:58;1.70;;;1.60;;
10641;SDS011;5369;49.586;8.646;2024-02-26T10:49:24;1.87;;;1.60;;
10641;SDS011;5369;49.586;8.646;2024-02-26T10:51:56;2.20;;;1.50;;
10641;SDS011;5369;49.586;8.646;2024-02-26T10:54:23;2.40;;;1.30;;
10641;SDS011;5369;49.586;8.646;2024-02-26T10:56:50;1.70;;;1.10;;
10641;SDS011;5369;49.586;8.646;2024-02-26T10:59:16;1.37;;;1.10;;
10641;SDS011;5369;49.586;8.646;2024-02-26T11:01:46;1.50;;;1.30;;
10641;SDS011;5369;49.586;8.646;2024-02-26T11:04:14;1.50;;;1.30;;
10641;SDS011;5369;49.586;8.646;2024-02-26T11:06:41;1.10;;;1.00;;
10641;SDS011;5369;49.586;8.646;2024-02-26T11:09:08;1.67;;;1.30;;
10641;SDS011;5369;49.586;8.646;2024-02-26T11:11:38;0.97;;;0.90;;
10641;SDS011;5369;49.586;8.646;2024-02-26T11:14:05;0.83;;;0.80;;
10641;SDS011;5369;49.586;8.646;2024-02-26T11:16:33;0.87;;;0.87;;
10641;SDS011;5369;49.586;8.646;2024-02-26T11:19:01;1.20;;;1.00;;
10641;SDS011;5369;49.586;8.646;2024-02-26T11:21:28;0.93;;;0.93;;
10641;SDS011;5369;49.586;8.646;2024-02-26T11:24:15;0.80;;;0.80;;
10641;SDS011;5369;49.586;8.646;2024-02-26T11:26:48;1.10;;;0.87;;
10641;SDS011;5369;49.586;8.646;2024-02-26T11:29:16;1.10;;;1.00;;
10641;SDS011;5369;49.586;8.646;2024-02-26T11:31:43;2.83;;;0.87;;
10641;SDS011;5369;49.586;8.646;2024-02-26T11:34:09;0.80;;;0.70;;
10641;SDS011;5369;49.586;8.646;2024-02-26T11:36:36;1.37;;;1.00;;
10641;SDS011;5369;49.586;8.646;2024-02-26T11:39:04;1.13;;;0.70;;
10641;SDS011;5369;49.586;8.646;2024-02-26T11:41:31;0.77;;;0.70;;
10641;SDS011;5369;49.586;8.646;2024-02-26T11:43:58;1.00;;;0.90;;
10641;SDS011;5369;49.586;8.646;2024-02-26T11:46:29;0.93;;;0.77;;
10641;SDS011;5369;49.586;8.646;2024-02-26T11:48:56;0.70;;;0.70;;
10641;SDS011;5369;49.586;8.646;2024-02-26T11:51:27;0.60;;;0.60;;
10641;SDS011;5369;49.586;8.646;2024-02-26T11:53:54;0.60;;;0.60;;
10641;SDS011;5369;49.586;8.646;2024-02-26T11:56:22;0.73;;;0.73;;
10641;SDS011;5369;49.586;8.646;2024-02-26T11:58:53;0.70;;;0.70;;
10641;SDS011;5369;49.586;8.646;2024-02-26T12:01:38;1.27;;;0.80;;
10641;SDS011;5369;49.586;8.646;2024-02-26T12:04:05;0.80;;;0.80;;
10641;SDS011;5369;49.586;8.646;2024-02-26T12:06:45;0.80;;;0.80;;
10641;SDS011;5369;49.586;8.646;2024-02-26T12:09:11;0.70;;;0.70;;
10641;SDS011;5369;49.586;8.646;2024-02-26T12:11:39;1.43;;;0.80;;
10641;SDS011;5369;49.586;8.646;2024-02-26T12:14:05;0.60;;;0.60;;
10641;SDS011;5369;49.586;8.646;2024-02-26T12:16:35;0.90;;;0.80;;
10641;SDS011;5369;49.586;8.646;2024-02-26T12:19:08;0.97;;;0.90;;
10641;SDS011;5369;49.586;8.646;2024-02-26T12:21:35;0.97;;;0.80;;
10641;SDS011;5369;49.586;8.646;2024-02-26T12:24:09;0.93;;;0.70;;
10641;SDS011;5369;49.586;8.646;2024-02-26T12:26:36;0.70;;;0.70;;
10641;SDS011;5369;49.586;8.646;2024-02-26T12:29:02;0.70;;;0.70;;
10641;SDS011;5369;49.586;8.646;2024-02-26T12:31:29;1.03;;;1.00;;
10641;SDS011;5369;49.586;8.646;2024-02-26T12:33:56;1.10;;;1.00;;
10641;SDS011;5369;49.586;8.646;2024-02-26T12:36:22;0.93;;;0.83;;
10641;SDS011;5369;49.586;8.646;2024-02-26T12:38:50;0.90;;;0.90;;
10641;SDS011;5369;49.586;8.646;2024-02-26T12:41:16;1.10;;;0.80;;
10641;SDS011;5369;49.586;8.646;2024-02-26T12:43:43;0.77;;;0.77;;
10641;SDS011;5369;49.586;8.646;2024-02-26T12:46:09;0.80;;;0.80;;
10641;SDS011;5369;49.586;8.646;2024-02-26T12:48:36;0.87;;;0.80;;
10641;SDS011;5369;49.586;8.646;2024-02-26T12:51:03;0.80;;;0.80;;
10641;SDS011;5369;49.586;8.646;2024-02-26T12:53:29;0.83;;;0.83;;
10641;SDS011;5369;49.586;8.646;2024-02-26T12:55:55;0.90;;;0.80;;
10641;SDS011;5369;49.586;8.646;2024-02-26T12:58:21;1.23;;;1.00;;
10641;SDS011;5369;49.586;8.646;2024-02-26T13:00:53;2.03;;;0.90;;
10641;SDS011;5369;49.586;8.646;2024-02-26T13:03:20;1.00;;;0.90;;
10641;SDS011;5369;49.586;8.646;2024-02-26T13:05:46;1.03;;;0.80;;
10641;SDS011;5369;49.586;8.646;2024-02-26T13:08:19;1.73;;;0.80;;
10641;SDS011;5369;49.586;8.646;2024-02-26T13:10:46;0.70;;;0.70;;
10641;SDS011;5369;49.586;8.646;2024-02-26T13:13:15;0.80;;;0.80;;
10641;SDS011;5369;49.586;8.646;2024-02-26T13:15:47;0.90;;;0.80;;
10641;SDS011;5369;49.586;8.646;2024-02-26T13:18:14;0.80;;;0.80;;
10641;SDS011;5369;49.586;8.646;2024-02-26T13:20:40;2.00;;;1.30;;
10641;SDS011;5369;49.586;8.646;2024-02-26T13:23:07;1.20;;;1.10;;
10641;SDS011;5369;49.586;8.646;2024-02-26T13:25:33;2.90;;;2.10;;
10641;SDS011;5369;49.586;8.646;2024-02-26T13:28:12;5.13;;;4.03;;
10641;SDS011;5369;49.586;8.646;2024-02-26T13:30:39;3.30;;;2.00;;
10641;SDS011;5369;49.586;8.646;2024-02-26T13:33:12;1.87;;;1.40;;
10641;SDS011;5369;49.586;8.646;2024-02-26T13:35:38;1.53;;;1.10;;
10641;SDS011;5369;49.586;8.646;2024-02-26T13:38:05;1.50;;;1.30;;
10641;SDS011;5369;49.586;8.646;2024-02-26T13:40:31;1.10;;;0.80;;
10641;SDS011;5369;49.586;8.646;2024-02-26T13:42:59;1.27;;;0.80;;
10641;SDS011;5369;49.586;8.646;2024-02-26T13:45:25;1.50;;;1.00;;
10641;SDS011;5369;49.586;8.646;2024-02-26T13:48:07;0.97;;;0.80;;
10641;SDS011;5369;49.586;8.646;2024-02-26T13:50:35;1.20;;;0.80;;
10641;SDS011;5369;49.586;8.646;2024-02-26T13:53:01;1.40;;;0.70;;
10641;SDS011;5369;49.586;8.646;2024-02-26T13:55:28;0.70;;;0.70;;
10641;SDS011;5369;49.586;8.646;2024-02-26T13:57:56;0.67;;;0.60;;
10641;SDS011;5369;49.586;8.646;2024-02-26T14:00:22;0.60;;;0.60;;
10641;SDS011;5369;49.586;8.646;2024-02-26T14:02:50;0.80;;;0.70;;
10641;SDS011;5369;49.586;8.646;2024-02-26T14:05:16;0.97;;;0.70;;
10641;SDS011;5369;49.586;8.646;2024-02-26T14:07:43;1.13;;;0.93;;
10641;SDS011;5369;49.586;8.646;2024-02-26T14:10:09;1.10;;;0.90;;
10641;SDS011;5369;49.586;8.646;2024-02-26T14:12:37;1.40;;;0.83;;
10641;SDS011;5369;49.586;8.646;2024-02-26T14:15:05;0.80;;;0.80;;
10641;SDS011;5369;49.586;8.646;2024-02-26T14:17:32;0.80;;;0.80;;
10641;SDS011;5369;49.586;8.646;2024-02-26T14:19:58;0.80;;;0.70;;
10641;SDS011;5369;49.586;8.646;2024-02-26T14:22:24;0.70;;;0.70;;
10641;SDS011;5369;49.586;8.646;2024-02-26T14:24:52;0.70;;;0.70;;
10641;SDS011;5369;49.586;8.646;2024-02-26T14:27:18;0.83;;;0.80;;
10641;SDS011;5369;49.586;8.646;2024-02-26T14:29:47;0.80;;;0.80;;
10641;SDS011;5369;49.586;8.646;2024-02-26T14:32:13;0.73;;;0.73;;
10641;SDS011;5369;49.586;8.646;2024-02-26T14:34:39;0.90;;;0.80;;
10641;SDS011;5369;49.586;8.646;2024-02-26T14:37:06;1.23;;;0.80;;
10641;SDS011;5369;49.586;8.646;2024-02-26T14:39:32;1.47;;;0.90;;
10641;SDS011;5369;49.586;8.646;2024-02-26T14:41:59;0.60;;;0.60;;
10641;SDS011;5369;49.586;8.646;2024-02-26T14:44:25;0.60;;;0.60;;
10641;SDS011;5369;49.586;8.646;2024-02-26T14:46:52;1.07;;;0.80;;
10641;SDS011;5369;49.586;8.646;2024-02-26T14:49:18;0.73;;;0.70;;
10641;SDS011;5369;49.586;8.646;2024-02-26T14:51:44;0.90;;;0.90;;
10641;SDS011;5369;49.586;8.646;2024-02-26T14:54:14;1.10;;;1.00;;
10641;SDS011;5369;49.586;8.646;2024-02-26T14:56:40;1.73;;;1.00;;
10641;SDS011;5369;49.586;8.646;2024-02-26T14:59:06;1.43;;;1.20;;